createdAt,value
2023-03-05T00:00:06.038Z,100173.44
2023-03-05T00:05:09.296Z,100172.22
2023-03-05T00:10:11.647Z,100147.44
2023-03-05T00:15:14.082Z,100144.94
2023-03-05T00:20:16.373Z,100139.72
2023-03-05T00:25:18.715Z,100141.50
2023-03-05T00:30:20.854Z,100133.00
2023-03-05T00:35:23.130Z,100146.25
2023-03-05T00:40:25.431Z,100135.69
2023-03-05T00:45:27.595Z,100142.94
2023-03-05T00:50:29.774Z,100136.94
2023-03-05T00:55:31.877Z,100136.91
2023-03-05T01:00:34.044Z,100138.75
2023-03-05T01:05:36.645Z,100142.19
2023-03-05T01:10:38.971Z,100136.84
2023-03-05T01:15:41.218Z,100105.38
2023-03-05T01:20:43.872Z,100115.97
2023-03-05T01:25:46.051Z,100108.94
2023-03-05T01:30:48.933Z,100096.94
2023-03-05T01:35:51.051Z,100087.44
2023-03-05T01:40:53.230Z,100090.47
2023-03-05T01:46:13.849Z,100105.44
2023-03-05T01:51:16.921Z,100106.41
2023-03-05T01:56:19.102Z,100079.66
2023-03-05T02:01:21.526Z,100086.53
2023-03-05T02:06:23.673Z,100091.34
2023-03-05T02:11:25.995Z,100081.88
2023-03-05T02:16:37.032Z,100061.84
2023-03-05T02:21:47.529Z,100083.34
2023-03-05T02:26:49.728Z,100078.69
2023-03-05T02:31:51.895Z,100090.97
2023-03-05T02:36:55.898Z,100070.53
2023-03-05T02:41:58.218Z,100089.69
2023-03-05T02:47:00.447Z,100089.69
2023-03-05T02:52:02.661Z,100090.44
2023-03-05T02:57:04.818Z,100091.66
2023-03-05T03:02:07.019Z,100089.03
2023-03-05T03:07:09.148Z,100105.88
2023-03-05T03:12:12.313Z,100111.41
2023-03-05T03:17:17.204Z,100108.22
2023-03-05T03:22:19.390Z,100084.31
2023-03-05T03:27:21.470Z,100090.00
2023-03-05T03:32:23.749Z,100095.50
2023-03-05T03:37:26.180Z,100114.94
2023-03-05T03:42:28.386Z,100102.91
2023-03-05T03:47:31.365Z,100091.66
2023-03-05T03:52:33.497Z,100077.31
2023-03-05T03:57:37.054Z,100037.00
2023-03-05T04:02:39.789Z,100072.84
2023-03-05T04:07:41.950Z,100063.31
2023-03-05T04:12:44.152Z,100039.28
2023-03-05T04:17:46.270Z,100023.34
2023-03-05T04:22:48.452Z,100050.44
2023-03-05T04:27:50.622Z,100046.53
2023-03-05T04:32:52.701Z,100064.47
2023-03-05T04:37:54.790Z,100065.31
2023-03-05T04:42:57.058Z,100080.47
2023-03-05T04:47:59.570Z,100065.94
2023-03-05T04:53:02.313Z,100083.88
2023-03-05T04:58:04.629Z,100070.28
2023-03-05T05:03:06.844Z,100067.22
2023-03-05T05:08:09.540Z,100065.13
2023-03-05T05:13:11.631Z,100068.47
2023-03-05T05:18:13.759Z,100078.91
2023-03-05T05:23:16.230Z,100071.13
2023-03-05T05:28:18.379Z,100067.16
2023-03-05T05:33:21.801Z,100067.72
2023-03-05T05:38:23.879Z,100071.00
2023-03-05T05:43:26.057Z,100063.75
2023-03-05T05:48:33.440Z,100062.69
2023-03-05T05:53:36.262Z,100063.84
2023-03-05T05:58:39.983Z,100068.88
2023-03-05T06:03:42.174Z,100078.56
2023-03-05T06:08:44.877Z,100086.00
2023-03-05T06:13:48.533Z,100090.69
2023-03-05T06:18:52.218Z,100094.56
2023-03-05T06:23:54.411Z,100088.97
2023-03-05T06:28:57.570Z,100080.06
2023-03-05T06:34:04.198Z,100091.56
2023-03-05T06:39:06.843Z,100078.44
2023-03-05T06:44:09.042Z,100075.47
2023-03-05T06:49:12.030Z,100078.63
2023-03-05T06:54:16.408Z,100076.81
2023-03-05T06:59:18.824Z,100069.53
2023-03-05T07:04:20.886Z,100082.38
2023-03-05T07:09:23.556Z,100078.81
2023-03-05T07:14:25.667Z,100068.69
2023-03-05T07:19:27.815Z,100076.97
2023-03-05T07:24:30.374Z,100049.69
2023-03-05T07:29:32.626Z,100074.94
2023-03-05T07:34:34.837Z,100049.28
2023-03-05T07:39:36.951Z,100061.69
2023-03-05T07:44:39.426Z,100058.31
2023-03-05T07:49:42.154Z,100067.97
2023-03-05T07:54:44.409Z,100045.03
2023-03-05T07:59:46.682Z,100039.13
2023-03-05T08:04:48.870Z,100063.31
2023-03-05T08:09:51.057Z,100043.78
2023-03-05T08:14:53.266Z,100048.22
2023-03-05T08:19:58.587Z,100034.31
2023-03-05T08:25:01.382Z,100044.41
2023-03-05T08:30:03.705Z,100036.72
2023-03-05T08:35:07.120Z,100046.69
2023-03-05T08:40:10.672Z,100008.19
2023-03-05T08:45:13.697Z,100004.16
2023-03-05T08:50:16.394Z,100023.03
2023-03-05T08:55:18.530Z,100012.03
2023-03-05T09:00:21.023Z,100012.56
2023-03-05T09:05:23.318Z,99993.25
2023-03-05T09:10:25.570Z,100009.97
2023-03-05T09:15:27.726Z,99998.84
2023-03-05T09:20:29.881Z,99995.09
2023-03-05T09:25:32.157Z,99993.81
2023-03-05T09:30:35.440Z,99975.25
2023-03-05T09:35:38.563Z,99983.03
2023-03-05T09:41:08.102Z,99960.66
2023-03-05T09:46:10.199Z,99976.28
2023-03-05T09:51:21.762Z,99958.91
2023-03-05T09:56:29.717Z,99965.28
2023-03-05T10:01:40.015Z,99954.63
2023-03-05T10:06:57.933Z,99956.00
2023-03-05T10:12:06.267Z,99943.00
2023-03-05T10:17:32.349Z,99929.38
2023-03-05T10:22:43.213Z,99929.25
2023-03-05T10:27:51.170Z,99922.66
2023-03-05T10:33:24.269Z,99921.91
2023-03-05T10:38:38.378Z,99923.06
2023-03-05T10:43:49.898Z,99899.31
2023-03-05T10:48:59.036Z,99908.72
2023-03-05T10:54:19.933Z,99893.03
2023-03-05T10:59:22.125Z,99859.09
2023-03-05T11:04:32.438Z,99863.53
2023-03-05T11:09:34.756Z,99857.59
2023-03-05T11:14:41.206Z,99847.84
2023-03-05T11:19:43.475Z,99825.16
2023-03-05T11:25:03.316Z,99832.38
2023-03-05T11:30:22.866Z,99820.47
2023-03-05T11:35:34.579Z,99809.97
2023-03-05T11:40:36.792Z,99811.50
2023-03-05T11:45:40.476Z,99799.75
2023-03-05T11:50:46.024Z,99785.28
2023-03-05T11:55:57.016Z,99781.72
2023-03-05T12:01:02.156Z,99783.94
2023-03-05T12:06:09.999Z,99778.28
2023-03-05T12:11:24.475Z,99754.31
2023-03-05T12:17:03.367Z,99747.00
2023-03-05T12:22:16.045Z,99755.34
2023-03-05T12:27:40.406Z,99755.59
2023-03-05T12:32:46.024Z,99751.16
2023-03-05T12:37:51.150Z,99743.75
2023-03-05T12:43:07.216Z,99735.09
2023-03-05T12:48:14.805Z,99735.72
2023-03-05T12:53:20.619Z,99714.06
2023-03-05T12:58:45.710Z,99719.56
2023-03-05T13:03:58.691Z,99702.88
2023-03-05T13:09:15.047Z,99706.59
2023-03-05T13:14:57.787Z,99708.69
2023-03-05T13:20:02.076Z,99707.75
2023-03-05T13:25:15.230Z,99722.69
2023-03-05T13:30:35.689Z,99730.47
2023-03-05T13:35:46.107Z,99712.13
2023-03-05T13:41:03.470Z,99730.41
2023-03-05T13:46:05.888Z,99721.59
2023-03-05T13:51:10.010Z,99718.50
2023-03-05T13:56:18.954Z,99718.81
2023-03-05T14:01:37.074Z,99735.00
2023-03-05T14:07:10.063Z,99738.84
2023-03-05T14:12:34.955Z,99743.69
2023-03-05T14:17:42.807Z,99730.72
2023-03-05T14:22:46.866Z,99742.13
2023-03-05T14:27:49.224Z,99756.53
2023-03-05T14:32:54.931Z,99762.31
2023-03-05T14:37:59.220Z,99784.94
2023-03-05T14:43:10.949Z,99811.38
2023-03-05T14:48:16.419Z,99801.03
2023-03-05T14:53:25.057Z,99795.56
2023-03-05T14:58:32.929Z,99781.25
2023-03-05T15:03:35.182Z,99820.09
2023-03-05T15:08:37.366Z,99831.88
2023-03-05T15:13:39.725Z,99823.25
2023-03-05T15:18:42.764Z,99812.03
2023-03-05T15:23:45.670Z,99793.34
2023-03-05T15:28:48.422Z,99802.84
2023-03-05T15:33:50.648Z,99814.78
2023-03-05T15:38:52.802Z,99817.16
2023-03-05T15:43:54.949Z,99815.81
2023-03-05T15:48:57.150Z,99821.31
2023-03-05T15:53:59.397Z,99830.28
2023-03-05T15:59:02.941Z,99825.69
2023-03-05T16:04:05.982Z,99849.06
2023-03-05T16:09:08.313Z,99841.72
2023-03-05T16:14:11.064Z,99847.13
2023-03-05T16:19:16.463Z,99840.72
2023-03-05T16:24:18.648Z,99856.16
2023-03-05T16:29:21.672Z,99842.69
2023-03-05T16:34:24.004Z,99871.72
2023-03-05T16:39:26.868Z,99865.03
2023-03-05T16:44:29.010Z,99882.50
2023-03-05T16:49:31.720Z,99882.63
2023-03-05T16:54:34.728Z,99903.72
2023-03-05T16:59:38.230Z,99900.06
2023-03-05T17:04:40.733Z,99903.63
2023-03-05T17:09:45.567Z,99934.41
2023-03-05T17:14:48.174Z,99932.63
2023-03-05T17:19:50.384Z,99941.59
2023-03-05T17:24:52.717Z,99942.69
2023-03-05T17:29:54.997Z,99947.91
2023-03-05T17:34:57.250Z,99954.88
2023-03-05T17:39:59.425Z,99967.53
2023-03-05T17:45:01.962Z,99944.19
2023-03-05T17:50:04.725Z,99967.91
2023-03-05T17:55:10.515Z,99982.59
2023-03-05T18:00:19.011Z,99974.13
2023-03-05T18:05:23.795Z,99971.63
2023-03-05T18:10:27.390Z,99985.88
2023-03-05T18:15:30.177Z,99989.81
2023-03-05T18:20:34.905Z,99986.72
2023-03-05T18:25:37.772Z,99984.25
2023-03-05T18:30:41.240Z,100001.81
2023-03-05T18:35:43.475Z,99999.75
2023-03-05T18:40:47.475Z,100021.88
2023-03-05T18:45:55.608Z,100010.56
2023-03-05T18:50:58.599Z,100020.28
2023-03-05T18:56:01.972Z,100035.81
2023-03-05T19:01:05.579Z,100037.47
2023-03-05T19:06:08.294Z,100043.88
2023-03-05T19:11:20.566Z,100056.28
2023-03-05T19:16:27.052Z,100061.84
2023-03-05T19:21:32.926Z,100053.97
2023-03-05T19:26:35.074Z,100022.78
2023-03-05T19:31:37.984Z,100050.31
2023-03-05T19:36:40.106Z,100052.97
2023-03-05T19:41:42.549Z,100051.94
2023-03-05T19:46:44.820Z,100060.41
2023-03-05T19:51:47.835Z,100047.63
2023-03-05T19:56:53.564Z,100067.50
2023-03-05T20:01:57.842Z,100056.72
2023-03-05T20:07:00.138Z,100059.81
2023-03-05T20:12:05.123Z,100067.69
2023-03-05T20:17:07.409Z,100084.88
2023-03-05T20:22:09.624Z,100098.31
2023-03-05T20:27:11.765Z,100098.13
2023-03-05T20:32:15.489Z,100101.00
2023-03-05T20:38:22.044Z,100102.03
2023-03-05T20:43:26.629Z,100083.63
2023-03-05T20:48:34.361Z,100080.69
2023-03-05T20:53:37.075Z,100101.41
2023-03-05T20:58:39.672Z,100094.19
2023-03-05T21:03:42.150Z,100095.63
2023-03-05T21:08:44.327Z,100081.56
2023-03-05T21:13:47.080Z,100089.63
2023-03-05T21:18:49.674Z,100065.84
2023-03-05T21:23:52.516Z,100081.97
2023-03-05T21:28:54.700Z,100096.69
2023-03-05T21:33:57.194Z,100082.00
2023-03-05T21:39:00.708Z,100081.75
2023-03-05T21:44:04.405Z,100081.31
2023-03-05T21:49:07.345Z,100096.44
2023-03-05T21:54:09.797Z,100111.56
2023-03-05T21:59:12.309Z,100101.38
2023-03-05T22:04:15.377Z,100104.66
2023-03-05T22:09:17.735Z,100106.28
2023-03-05T22:14:19.983Z,100080.84
2023-03-05T22:19:23.659Z,100102.16
2023-03-05T22:24:25.970Z,100076.31
2023-03-05T22:29:29.309Z,100094.25
2023-03-05T22:34:31.409Z,100095.41
2023-03-05T22:39:33.768Z,100077.16
2023-03-05T22:44:36.262Z,100066.22
2023-03-05T22:49:38.492Z,100070.78
2023-03-05T22:54:40.652Z,100073.03
2023-03-05T22:59:42.806Z,100070.94
2023-03-05T23:04:50.298Z,100089.88
2023-03-05T23:09:56.965Z,100115.66
2023-03-05T23:15:04.370Z,100131.53
2023-03-05T23:20:11.888Z,100117.84
2023-03-05T23:25:15.592Z,100123.25
2023-03-05T23:30:21.734Z,100127.00
2023-03-05T23:35:29.656Z,100136.31
2023-03-05T23:40:42.146Z,100136.66
2023-03-05T23:45:48.515Z,100141.53
2023-03-05T23:50:50.841Z,100126.47
2023-03-05T23:55:54.167Z,100112.16
